Current Weather

University

Davis, California (KEDU)

Report from: Wednesday, April 24, 2024 5:35 PM UTC
Current time: Wednesday, April 24, 2024 6:07 PM UTC

Nearby weather – Weather history – Daily summaries
Weather forecast

Temperature17.0°C (62.6°F)
Dew point8.0°C (46.4°F)
Winds Calm
Visibility10 mi. (16.1 km)
Clouds Few clouds 4,000 ft. (1,219 m)
Ceiling: Overcast 4,900 ft. (1,494 m)
Altimeter30.07 in.Hg (1018 mB)
Relative humidity55 %
Density altitude220 ft. (67 m)
Remarks Fully automated report
Automated weather observing station without precipitation discriminator
Flight conditions Visual Meteorological Conditions
Raw dataKEDU 241735Z AUTO 00000KT 10SM FEW040 OVC049 17/08 A3007 RMK AO1
An error has occurred. This application may no longer respond until reloaded. Reload 🗙